Time;durP1;ratioP1;P1;durP2;ratioP2;P2;SDS_P1;SDS_P2;PMS_P1;PMS_P2;Temp;Humidity;BMP_temperature;BMP_pressure;BME280_temperature;BME280_humidity;BME280_pressure;Samples;Min_cycle;Max_cycle;Signal;HPM_P1;HPM_P2
2022/12/23 00:00:10;;;;;;;59.78;30.50;;;8.00;99.90;;;;;;5076334;28;20048;-88
2022/12/23 00:02:37;;;;;;;62.95;29.83;;;8.00;99.90;;;;;;5091776;28;20059;-88
2022/12/23 00:05:04;;;;;;;60.97;29.83;;;8.30;99.90;;;;;;5097177;28;20050;-88
2022/12/23 00:07:29;;;;;;;57.38;28.70;;;8.00;99.90;;;;;;5098716;28;20085;-88
2022/12/23 00:09:55;;;;;;;61.03;31.10;;;8.20;99.90;;;;;;5114423;28;20114;-88
2022/12/23 00:15:06;;;;;;;70.65;31.52;;;8.00;99.90;;;;;;5114116;28;20047;-88
2022/12/23 00:17:50;;;;;;;59.17;29.92;;;8.10;99.90;;;;;;5096327;28;20473;-88
2022/12/23 00:20:16;;;;;;;61.13;30.42;;;8.00;99.90;;;;;;5096716;28;20066;-89
2022/12/23 00:25:41;;;;;;;60.88;31.27;;;8.10;99.90;;;;;;5094778;28;20056;-88
2022/12/23 00:28:10;;;;;;;60.65;30.95;;;8.00;99.90;;;;;;5094637;28;20056;-88
2022/12/23 00:30:44;;;;;;;64.10;31.23;;;8.00;99.90;;;;;;5112991;28;20067;-88
2022/12/23 00:33:10;;;;;;;58.88;29.95;;;8.00;99.90;;;;;;5098468;28;20131;-87
2022/12/23 00:35:35;;;;;;;58.80;31.10;;;8.00;99.90;;;;;;5083578;28;20090;-88
2022/12/23 00:38:01;;;;;;;59.80;29.92;;;8.00;99.90;;;;;;5078299;28;20400;-88
2022/12/23 00:43:11;;;;;;;59.00;30.65;;;8.00;99.90;;;;;;5095094;28;20048;-88
2022/12/23 00:45:37;;;;;;;63.75;30.77;;;8.00;99.90;;;;;;5094862;28;20399;-88
2022/12/23 00:50:50;;;;;;;55.40;28.98;;;8.00;99.90;;;;;;5095639;28;20400;-89
2022/12/23 00:53:16;;;;;;;58.67;29.08;;;8.00;99.90;;;;;;5078441;28;20098;-88
2022/12/23 00:55:44;;;;;;;58.17;29.73;;;8.00;99.90;;;;;;5078072;28;20052;-88
2022/12/23 00:58:09;;;;;;;62.28;30.73;;;8.00;99.90;;;;;;5077695;28;20048;-89
2022/12/23 01:06:03;;;;;;;63.58;31.40;;;8.00;99.90;;;;;;5114556;28;20108;-88
2022/12/23 01:08:29;;;;;;;60.78;30.90;;;7.90;99.90;;;;;;5112457;28;20047;-86
2022/12/23 01:10:55;;;;;;;65.53;31.48;;;8.00;99.90;;;;;;5078652;28;20080;-89
2022/12/23 01:13:21;;;;;;;61.53;30.23;;;8.00;99.90;;;;;;5094318;28;20542;-89
2022/12/23 01:15:46;;;;;;;68.95;31.92;;;8.10;99.90;;;;;;5078426;28;20492;-88
2022/12/23 01:18:12;;;;;;;64.57;31.42;;;9.10;99.90;;;;;;5083439;28;20135;-89
2022/12/23 01:20:39;;;;;;;61.83;31.38;;;7.90;99.90;;;;;;5095854;28;20142;-87
2022/12/23 01:23:05;;;;;;;63.38;29.92;;;7.90;99.90;;;;;;5097124;28;20098;-88
2022/12/23 01:25:31;;;;;;;66.03;30.08;;;7.90;99.90;;;;;;5093660;28;20160;-88
2022/12/23 01:27:56;;;;;;;66.40;31.95;;;8.00;99.90;;;;;;5077358;28;20138;-87
2022/12/23 01:30:23;;;;;;;64.80;32.50;;;7.90;99.90;;;;;;5080063;28;20047;-88
2022/12/23 01:32:48;;;;;;;64.88;30.65;;;7.90;99.90;;;;;;5096437;28;20051;-88
2022/12/23 01:35:14;;;;;;;66.65;31.20;;;7.90;99.90;;;;;;5077428;28;20089;-88
2022/12/23 01:37:40;;;;;;;62.15;31.00;;;7.90;99.90;;;;;;5078219;28;20059;-88
2022/12/23 01:40:06;;;;;;;66.03;30.98;;;7.90;99.90;;;;;;5112233;28;20055;-88
2022/12/23 01:42:45;;;;;;;68.55;30.48;;;7.90;99.90;;;;;;5098041;28;20405;-88
2022/12/23 01:45:27;;;;;;;64.90;30.77;;;8.60;99.90;;;;;;5095813;28;20059;-88
2022/12/23 01:47:55;;;;;;;63.80;28.83;;;8.00;99.90;;;;;;5097189;28;20055;-88
2022/12/23 01:50:29;;;;;;;63.55;30.05;;;7.90;99.90;;;;;;5083635;28;20480;-88
2022/12/23 01:53:08;;;;;;;65.35;30.00;;;7.90;99.90;;;;;;5068069;28;20052;-88
2022/12/23 01:55:43;;;;;;;61.10;29.00;;;7.90;99.90;;;;;;5065827;28;20052;-88
2022/12/23 01:58:15;;;;;;;65.95;30.52;;;7.90;99.90;;;;;;5094216;28;20181;-88
2022/12/23 02:03:41;;;;;;;64.68;30.27;;;8.20;99.90;;;;;;5096026;28;20044;-88
2022/12/23 02:11:56;;;;;;;62.85;28.73;;;7.80;99.90;;;;;;5095432;28;20054;-88
2022/12/23 02:17:30;;;;;;;58.50;28.23;;;8.40;99.90;;;;;;5079111;28;20048;-88
2022/12/23 02:20:14;;;;;;;60.05;26.60;;;7.80;99.90;;;;;;5074186;28;20504;-88
2022/12/23 02:22:55;;;;;;;57.78;26.48;;;7.80;99.90;;;;;;5039469;28;20441;-88
2022/12/23 02:25:42;;;;;;;52.05;25.05;;;7.90;99.90;;;;;;5089568;28;20408;-88
2022/12/23 02:28:48;;;;;;;55.88;26.10;;;7.90;99.90;;;;;;5068413;28;20040;-88
2022/12/23 02:31:38;;;;;;;52.50;25.15;;;7.90;99.90;;;;;;5084862;28;20055;-88
2022/12/23 02:34:11;;;;;;;54.45;25.63;;;7.90;99.90;;;;;;5054462;28;20409;-88
2022/12/23 02:36:53;;;;;;;59.00;27.10;;;8.00;99.90;;;;;;5055669;28;20079;-88
2022/12/23 02:39:28;;;;;;;57.30;26.48;;;7.90;99.90;;;;;;5072472;28;20056;-88
2022/12/23 02:42:01;;;;;;;57.78;26.90;;;7.80;99.90;;;;;;5072759;28;20053;-88
2022/12/23 02:44:42;;;;;;;57.63;27.23;;;7.90;99.90;;;;;;5063729;28;20044;-88
2022/12/23 02:47:47;;;;;;;59.25;26.98;;;7.90;99.90;;;;;;5092626;28;20113;-88
2022/12/23 02:50:25;;;;;;;53.08;26.63;;;7.90;99.90;;;;;;5076043;28;20048;-88
2022/12/23 02:52:54;;;;;;;55.28;25.30;;;7.80;99.90;;;;;;5076130;28;20135;-87
2022/12/23 02:55:32;;;;;;;58.63;26.60;;;7.90;99.90;;;;;;5093905;28;20055;-88
2022/12/23 02:58:01;;;;;;;53.20;26.80;;;7.80;99.90;;;;;;5076841;28;20048;-88
2022/12/23 03:00:28;;;;;;;54.22;25.95;;;7.80;99.90;;;;;;5090743;28;20047;-88
2022/12/23 03:02:54;;;;;;;57.28;26.13;;;7.80;99.90;;;;;;5094061;28;20054;-88
2022/12/23 03:05:28;;;;;;;48.80;24.55;;;7.80;99.90;;;;;;5110619;28;20055;-88
2022/12/23 03:08:01;;;;;;;55.22;25.52;;;7.80;99.90;;;;;;5081613;28;20052;-88
2022/12/23 03:10:45;;;;;;;52.88;26.02;;;8.70;99.90;;;;;;5092543;28;20055;-89
2022/12/23 03:13:38;;;;;;;52.45;25.33;;;7.80;99.90;;;;;;5109761;28;20111;-88
2022/12/23 03:16:06;;;;;;;52.85;24.27;;;7.80;99.90;;;;;;5054793;28;20052;-88
2022/12/23 03:18:40;;;;;;;50.00;24.15;;;7.80;99.90;;;;;;5069775;28;20040;-87
2022/12/23 03:21:11;;;;;;;49.75;23.40;;;7.80;99.90;;;;;;5102628;28;20435;-88
2022/12/23 03:23:49;;;;;;;50.47;23.23;;;7.80;99.90;;;;;;5092964;28;20393;-87
2022/12/23 03:26:57;;;;;;;49.65;22.05;;;7.80;99.90;;;;;;5103464;28;20527;-88
2022/12/23 03:29:30;;;;;;;48.33;21.38;;;7.80;99.90;;;;;;5057517;28;20049;-88
2022/12/23 03:31:59;;;;;;;47.55;22.70;;;8.60;99.90;;;;;;5075228;28;20094;-88
2022/12/23 03:34:29;;;;;;;50.75;21.15;;;7.80;99.90;;;;;;5069464;28;20055;-88
2022/12/23 03:36:59;;;;;;;48.60;22.30;;;8.50;99.90;;;;;;5081695;28;20048;-88
2022/12/23 03:39:31;;;;;;;55.03;23.17;;;7.80;99.90;;;;;;5096586;28;20059;-87
2022/12/23 03:42:08;;;;;;;54.65;23.50;;;8.50;99.90;;;;;;5092198;28;20075;-88
2022/12/23 03:44:37;;;;;;;55.95;22.63;;;7.70;99.90;;;;;;5096882;28;20047;-88
2022/12/23 03:47:21;;;;;;;54.33;22.77;;;7.80;99.90;;;;;;5082767;28;20051;-88
2022/12/23 03:50:00;;;;;;;55.45;23.17;;;7.80;99.90;;;;;;5111901;28;20491;-88
2022/12/23 03:52:57;;;;;;;52.45;21.83;;;7.80;99.90;;;;;;5082182;28;20136;-88
2022/12/23 03:55:35;;;;;;;;;;;7.70;99.90;;;;;;5096841;28;20466;-88
2022/12/23 03:58:10;;;;;;;47.00;21.88;;;7.70;99.90;;;;;;5080214;28;20053;-88
2022/12/23 04:00:44;;;;;;;49.60;21.38;;;7.70;99.90;;;;;;5072101;28;20048;-88
2022/12/23 04:03:16;;;;;;;52.05;22.38;;;7.70;99.90;;;;;;5095526;28;20044;-88
2022/12/23 04:05:48;;;;;;;55.08;23.42;;;7.70;99.90;;;;;;5097186;28;20085;-87
2022/12/23 04:08:30;;;;;;;57.40;23.77;;;7.70;99.90;;;;;;5063594;28;20080;-88
2022/12/23 04:10:57;;;;;;;53.72;24.98;;;7.70;99.90;;;;;;5098177;28;20055;-88
2022/12/23 04:13:22;;;;;;;55.97;24.27;;;7.70;99.90;;;;;;5080384;28;20052;-87
2022/12/23 04:15:48;;;;;;;59.95;25.70;;;7.70;99.90;;;;;;5069266;28;20059;-88
2022/12/23 04:18:15;;;;;;;54.03;23.15;;;7.60;99.90;;;;;;5078052;28;20062;-87
2022/12/23 04:20:41;;;;;;;53.53;23.38;;;7.60;99.90;;;;;;5097962;28;20054;-87
2022/12/23 04:23:06;;;;;;;50.90;23.08;;;7.60;99.90;;;;;;5081448;28;20051;-88
2022/12/23 04:25:32;;;;;;;61.03;24.60;;;7.60;99.90;;;;;;5096679;28;20070;-87
2022/12/23 04:27:58;;;;;;;50.95;23.15;;;7.60;99.90;;;;;;5071730;28;20105;-88
2022/12/23 04:30:23;;;;;;;55.83;23.85;;;7.60;99.90;;;;;;5096324;28;20047;-87
2022/12/23 04:32:49;;;;;;;53.78;24.80;;;7.60;99.90;;;;;;5115294;28;20048;-88
2022/12/23 04:35:15;;;;;;;52.88;23.95;;;7.60;99.90;;;;;;5116331;28;20155;-88
2022/12/23 04:37:41;;;;;;;55.67;24.65;;;7.60;99.90;;;;;;5081105;28;20062;-87
2022/12/23 04:40:07;;;;;;;54.60;24.30;;;7.60;99.90;;;;;;5097482;28;20047;-87
2022/12/23 04:42:33;;;;;;;53.50;23.48;;;7.60;99.90;;;;;;5081247;28;20051;-87
2022/12/23 04:44:59;;;;;;;53.63;23.77;;;7.50;99.90;;;;;;5081022;28;20043;-87
2022/12/23 04:47:24;;;;;;;51.80;23.65;;;7.50;99.90;;;;;;5097265;28;20052;-88
2022/12/23 04:49:50;;;;;;;49.20;22.20;;;7.50;99.90;;;;;;5115039;28;20092;-88
2022/12/23 04:52:16;;;;;;;47.20;21.77;;;7.50;99.90;;;;;;5097921;28;20445;-88
2022/12/23 04:54:41;;;;;;;50.22;23.13;;;7.90;99.90;;;;;;5098063;28;20105;-87
2022/12/23 04:57:07;;;;;;;47.38;20.77;;;8.40;99.90;;;;;;5116606;28;20066;-88
2022/12/23 04:59:33;;;;;;;53.22;23.98;;;7.50;99.90;;;;;;5098332;28;20113;-87
2022/12/23 05:01:58;;;;;;;50.00;22.40;;;7.60;99.90;;;;;;5108577;28;20052;-87
2022/12/23 05:04:24;;;;;;;50.83;23.67;;;7.70;99.90;;;;;;5092582;27;20404;-87
2022/12/23 05:06:50;;;;;;;49.83;23.00;;;8.20;99.90;;;;;;5098562;27;20084;-88
2022/12/23 05:09:15;;;;;;;50.50;23.67;;;7.50;99.90;;;;;;5095330;27;20035;-87
2022/12/23 05:11:41;;;;;;;50.47;22.63;;;7.50;99.90;;;;;;5103131;27;20086;-87
2022/12/23 05:14:09;;;;;;;51.63;23.35;;;7.60;99.90;;;;;;5098880;27;20043;-88
2022/12/23 05:16:34;;;;;;;55.20;25.30;;;8.30;99.90;;;;;;5116064;27;20043;-87
2022/12/23 05:19:00;;;;;;;56.72;24.17;;;7.50;99.90;;;;;;5095952;27;20126;-88
2022/12/23 05:21:26;;;;;;;55.03;25.05;;;7.50;99.90;;;;;;5101377;27;20419;-88
2022/12/23 05:23:51;;;;;;;55.22;24.27;;;8.40;99.90;;;;;;5092830;27;20050;-89
2022/12/23 05:26:17;;;;;;;58.50;24.67;;;7.50;99.90;;;;;;5083963;28;20131;-87
2022/12/23 05:28:44;;;;;;;57.25;24.67;;;7.50;99.90;;;;;;5094801;28;20051;-87
2022/12/23 05:31:11;;;;;;;56.58;24.92;;;7.50;99.90;;;;;;5103108;28;20060;-88
2022/12/23 05:33:37;;;;;;;60.40;24.95;;;7.50;99.90;;;;;;5093386;28;20435;-88
2022/12/23 05:36:04;;;;;;;54.35;24.30;;;7.50;99.90;;;;;;5093313;28;20478;-87
2022/12/23 05:38:30;;;;;;;59.47;25.50;;;7.50;99.90;;;;;;5076625;28;20128;-88
2022/12/23 05:40:56;;;;;;;57.03;23.98;;;7.90;99.90;;;;;;5108036;28;20089;-86
2022/12/23 05:43:22;;;;;;;54.17;24.30;;;7.50;99.90;;;;;;5108806;28;20051;-87
2022/12/23 05:45:49;;;;;;;60.83;26.33;;;7.50;99.90;;;;;;5079416;28;20083;-87
2022/12/23 05:48:14;;;;;;;59.50;25.08;;;7.50;99.90;;;;;;5056224;28;20045;-88
2022/12/23 05:50:40;;;;;;;56.13;24.20;;;7.50;99.90;;;;;;5089536;28;20386;-87
2022/12/23 05:53:06;;;;;;;58.05;23.52;;;7.50;99.90;;;;;;5056226;28;20055;-88
2022/12/23 05:55:32;;;;;;;52.65;24.05;;;7.50;99.90;;;;;;5056168;28;20514;-87
2022/12/23 05:57:57;;;;;;;59.30;25.67;;;7.90;99.90;;;;;;5055853;28;20114;-86
2022/12/23 06:00:23;;;;;;;54.35;24.75;;;7.50;99.90;;;;;;5072657;28;20401;-88
2022/12/23 06:02:49;;;;;;;58.28;24.58;;;7.50;99.90;;;;;;5093968;28;20128;-89
2022/12/23 06:05:14;;;;;;;58.92;24.85;;;8.40;99.90;;;;;;5114792;28;20052;-88
2022/12/23 06:07:40;;;;;;;61.63;24.65;;;7.40;99.90;;;;;;5096469;28;20051;-88
2022/12/23 06:10:08;;;;;;;58.75;23.38;;;7.40;99.90;;;;;;5097314;28;20119;-88
2022/12/23 06:12:33;;;;;;;58.38;24.08;;;7.40;99.90;;;;;;5095544;28;20392;-88
2022/12/23 06:14:59;;;;;;;57.55;23.92;;;7.90;99.90;;;;;;5093131;28;20040;-87
2022/12/23 06:17:25;;;;;;;56.28;22.85;;;7.40;99.90;;;;;;5094906;28;20110;-87
2022/12/23 06:19:51;;;;;;;60.20;24.55;;;7.30;99.90;;;;;;5074000;28;20416;-88
2022/12/23 06:22:17;;;;;;;49.47;22.55;;;7.30;99.90;;;;;;5092801;28;20055;-88
2022/12/23 06:24:43;;;;;;;52.35;22.63;;;7.60;99.90;;;;;;5077066;28;20051;-87
2022/12/23 06:27:09;;;;;;;50.33;21.27;;;7.30;99.90;;;;;;5093379;28;20091;-88
2022/12/23 06:29:35;;;;;;;50.75;21.13;;;8.50;99.90;;;;;;5090325;28;20048;-88
2022/12/23 06:32:01;;;;;;;52.03;22.48;;;7.20;99.90;;;;;;5094024;28;20051;-88
2022/12/23 06:34:27;;;;;;;51.35;21.83;;;7.30;99.90;;;;;;5078643;28;20047;-88
2022/12/23 06:36:53;;;;;;;51.67;22.02;;;7.30;99.90;;;;;;5078589;28;20407;-89
2022/12/23 06:39:19;;;;;;;49.97;21.92;;;7.20;99.90;;;;;;5096129;28;20048;-88
2022/12/23 06:41:45;;;;;;;51.88;22.30;;;7.30;99.90;;;;;;5096125;28;20048;-87
2022/12/23 06:44:10;;;;;;;53.47;21.10;;;7.80;99.90;;;;;;5079753;28;20055;-88
2022/12/23 06:46:36;;;;;;;51.08;21.55;;;7.30;99.90;;;;;;5079813;28;20089;-88
2022/12/23 06:49:02;;;;;;;51.75;19.92;;;7.30;99.90;;;;;;5096423;28;20051;-88
2022/12/23 06:51:28;;;;;;;54.47;21.80;;;7.20;99.90;;;;;;5095920;28;20087;-87
2022/12/23 06:53:54;;;;;;;55.95;22.60;;;7.20;99.90;;;;;;5093871;28;20044;-88
2022/12/23 06:56:20;;;;;;;53.92;23.23;;;7.20;99.90;;;;;;5096111;28;20460;-88
2022/12/23 06:58:45;;;;;;;44.88;20.05;;;7.80;99.90;;;;;;5079357;28;20052;-88
2022/12/23 07:01:11;;;;;;;58.35;22.15;;;8.20;99.90;;;;;;5096953;28;20112;-88
2022/12/23 07:03:37;;;;;;;50.97;21.48;;;7.20;99.90;;;;;;5081049;28;20092;-88
2022/12/23 07:06:03;;;;;;;48.70;21.02;;;7.20;99.90;;;;;;5080281;28;20180;-88
2022/12/23 07:08:29;;;;;;;50.78;21.02;;;7.30;99.90;;;;;;5079304;28;20058;-88
2022/12/23 07:11:02;;;;;;;49.20;21.08;;;7.30;99.90;;;;;;5078967;28;20056;-88
2022/12/23 07:13:28;;;;;;;50.28;22.17;;;7.30;99.90;;;;;;5100253;28;20437;-88
2022/12/23 07:15:54;;;;;;;52.70;21.92;;;7.80;99.90;;;;;;5083840;28;20055;-88
2022/12/23 07:18:23;;;;;;;50.63;22.13;;;7.90;99.90;;;;;;5092042;28;20052;-88
2022/12/23 07:20:50;;;;;;;53.20;21.42;;;7.30;99.90;;;;;;5082550;28;20055;-89
2022/12/23 07:23:15;;;;;;;50.47;21.50;;;8.00;99.90;;;;;;5082117;28;20089;-88
2022/12/23 07:25:41;;;;;;;53.97;22.25;;;7.30;99.90;;;;;;5080907;28;20079;-88
2022/12/23 07:28:07;;;;;;;51.13;21.98;;;7.30;99.90;;;;;;5099773;28;20044;-88
2022/12/23 07:30:34;;;;;;;53.90;21.92;;;7.30;99.90;;;;;;5079136;28;20060;-88
2022/12/23 07:32:59;;;;;;;54.35;21.75;;;7.40;99.90;;;;;;5079285;28;20087;-88
2022/12/23 07:35:25;;;;;;;54.40;21.80;;;7.30;99.90;;;;;;5096951;28;20467;-88
2022/12/23 07:37:55;;;;;;;55.15;21.10;;;7.60;99.90;;;;;;5095220;28;20131;-89
2022/12/23 07:40:24;;;;;;;46.13;20.38;;;7.30;99.90;;;;;;5095543;28;20421;-88
2022/12/23 07:42:54;;;;;;;50.83;21.08;;;7.50;99.90;;;;;;5079098;28;20492;-89
2022/12/23 07:45:20;;;;;;;44.58;20.65;;;7.30;99.90;;;;;;5078750;28;20048;-88
2022/12/23 07:47:46;;;;;;;49.95;20.67;;;7.30;99.90;;;;;;5079854;28;20109;-88
2022/12/23 07:50:12;;;;;;;48.67;20.38;;;7.70;99.90;;;;;;5097216;28;20052;-88
2022/12/23 07:52:38;;;;;;;48.55;19.33;;;7.30;99.90;;;;;;5080327;28;20063;-88
2022/12/23 07:55:05;;;;;;;45.42;19.85;;;8.40;99.90;;;;;;5076125;28;20044;-88
2022/12/23 07:57:36;;;;;;;46.88;19.85;;;7.30;99.90;;;;;;5088149;28;20051;-88
2022/12/23 08:00:04;;;;;;;43.70;19.30;;;7.30;99.90;;;;;;5087765;28;20055;-88
2022/12/23 08:02:29;;;;;;;45.53;20.52;;;7.30;99.90;;;;;;5115212;28;20052;-87
2022/12/23 08:04:55;;;;;;;44.35;19.83;;;7.40;99.90;;;;;;5098373;28;20069;-87
2022/12/23 08:07:21;;;;;;;45.22;19.50;;;7.30;99.90;;;;;;5099010;28;20054;-87
2022/12/23 08:09:47;;;;;;;44.67;20.52;;;7.30;99.90;;;;;;5098596;28;20134;-87
2022/12/23 08:12:13;;;;;;;45.30;18.80;;;7.30;99.90;;;;;;5098452;28;20044;-87
2022/12/23 08:14:38;;;;;;;39.22;18.73;;;7.30;99.90;;;;;;5098746;28;20216;-87
2022/12/23 08:17:04;;;;;;;38.53;17.85;;;8.30;99.90;;;;;;5094758;28;20044;-87
2022/12/23 08:19:29;;;;;;;43.13;18.15;;;8.70;99.90;;;;;;5074673;28;20091;-87
2022/12/23 08:21:55;;;;;;;42.97;17.65;;;7.40;99.90;;;;;;5075400;28;20520;-88
2022/12/23 08:24:21;;;;;;;40.25;17.55;;;7.30;99.90;;;;;;5058470;28;20518;-88
2022/12/23 08:26:47;;;;;;;41.22;16.90;;;7.30;99.90;;;;;;5075624;28;20075;-87
2022/12/23 08:29:13;;;;;;;39.72;16.73;;;8.10;99.90;;;;;;5076641;28;20110;-87
2022/12/23 08:31:39;;;;;;;37.42;16.92;;;8.10;99.90;;;;;;5104199;27;20060;-87
2022/12/23 08:34:04;;;;;;;38.58;17.25;;;7.40;99.90;;;;;;5095380;28;20051;-87
2022/12/23 08:36:32;;;;;;;35.10;15.98;;;7.40;99.90;;;;;;5079983;28;20055;-87
2022/12/23 08:39:00;;;;;;;38.70;17.23;;;7.40;99.90;;;;;;5077054;28;20053;-87
2022/12/23 08:41:29;;;;;;;32.90;15.63;;;8.00;99.90;;;;;;5057642;28;20056;-88
2022/12/23 08:43:55;;;;;;;37.90;16.95;;;7.40;99.90;;;;;;5058603;28;20075;-88
2022/12/23 08:46:21;;;;;;;36.88;16.40;;;7.40;99.90;;;;;;5062643;28;20061;-87
2022/12/23 08:48:48;;;;;;;37.35;16.73;;;7.40;99.90;;;;;;5094836;28;20072;-88
2022/12/23 08:51:15;;;;;;;35.83;17.10;;;7.50;99.90;;;;;;5108491;28;20052;-88
2022/12/23 08:53:41;;;;;;;41.17;17.35;;;7.50;99.90;;;;;;5090701;28;20044;-87
2022/12/23 08:56:19;;;;;;;39.22;17.50;;;7.50;99.90;;;;;;5073200;28;20428;-87
2022/12/23 08:58:46;;;;;;;37.35;16.65;;;7.50;99.90;;;;;;5077078;28;20052;-87
2022/12/23 09:01:14;;;;;;;35.53;15.55;;;7.60;99.90;;;;;;5094262;28;20086;-87
2022/12/23 09:03:40;;;;;;;33.83;15.75;;;7.70;99.90;;;;;;5077036;28;20055;-86
2022/12/23 09:06:12;;;;;;;34.50;15.82;;;7.70;99.90;;;;;;5111932;27;20633;-84
2022/12/23 09:08:38;;;;;;;32.90;15.70;;;8.20;99.90;;;;;;5094191;28;20044;-84
2022/12/23 09:11:04;;;;;;;34.25;15.93;;;7.80;99.90;;;;;;5092774;28;20177;-85
2022/12/23 09:13:30;;;;;;;34.30;15.70;;;7.80;99.90;;;;;;5077026;28;20072;-86
2022/12/23 09:15:56;;;;;;;32.25;15.60;;;7.80;99.90;;;;;;5076605;28;20193;-87
2022/12/23 09:18:21;;;;;;;34.33;16.48;;;7.80;99.90;;;;;;5076621;28;20456;-87
2022/12/23 09:20:47;;;;;;;37.05;16.08;;;7.80;99.90;;;;;;5094566;28;20055;-88
2022/12/23 09:23:13;;;;;;;30.60;15.23;;;7.80;99.90;;;;;;5077547;28;20106;-86
2022/12/23 09:25:38;;;;;;;35.67;14.73;;;7.80;99.90;;;;;;5093221;28;20508;-87
2022/12/23 09:28:06;;;;;;;29.63;15.00;;;7.90;99.90;;;;;;5093801;28;20132;-87
2022/12/23 09:30:31;;;;;;;28.83;14.85;;;8.10;99.90;;;;;;5076403;28;20052;-87
2022/12/23 09:32:57;;;;;;;29.10;14.60;;;8.40;99.90;;;;;;5094716;28;20108;-87
2022/12/23 09:35:23;;;;;;;26.23;14.07;;;8.40;99.90;;;;;;5093870;28;20044;-87
2022/12/23 09:37:49;;;;;;;27.80;13.75;;;8.50;99.90;;;;;;5076045;28;20056;-87
2022/12/23 09:40:19;;;;;;;24.88;13.10;;;8.50;99.90;;;;;;5059583;28;20063;-87
2022/12/23 09:42:51;;;;;;;28.80;14.32;;;8.50;99.90;;;;;;5077022;28;20048;-87
2022/12/23 09:45:35;;;;;;;29.08;13.82;;;8.50;99.90;;;;;;5075665;28;20054;-87
2022/12/23 09:48:03;;;;;;;32.60;16.80;;;8.50;99.90;;;;;;5059668;28;20141;-87
2022/12/23 09:50:33;;;;;;;35.50;19.45;;;8.50;99.90;;;;;;5076695;28;20074;-88
2022/12/23 09:53:06;;;;;;;39.00;19.60;;;8.50;99.90;;;;;;5076298;28;20072;-88
2022/12/23 09:55:44;;;;;;;33.17;17.85;;;8.60;99.90;;;;;;5094073;28;20415;-87
2022/12/23 09:58:28;;;;;;;28.65;16.33;;;8.60;99.90;;;;;;5059678;28;20051;-88
2022/12/23 10:01:02;;;;;;;33.28;15.68;;;8.60;99.90;;;;;;5060017;28;20109;-87
2022/12/23 10:03:43;;;;;;;25.85;14.57;;;8.70;99.90;;;;;;5076627;28;20059;-87
2022/12/23 10:06:27;;;;;;;25.00;14.15;;;8.70;99.90;;;;;;5059282;28;20083;-87
2022/12/23 10:08:58;;;;;;;26.85;14.70;;;8.70;99.90;;;;;;5075809;28;20460;-87
2022/12/23 10:11:29;;;;;;;24.38;14.18;;;8.60;99.90;;;;;;5059597;28;20055;-87
2022/12/23 10:14:17;;;;;;;29.17;14.30;;;8.60;99.90;;;;;;5059267;28;20060;-88
2022/12/23 10:16:52;;;;;;;25.58;14.15;;;8.60;99.90;;;;;;5058949;28;20063;-87
2022/12/23 10:19:30;;;;;;;31.85;13.73;;;8.50;99.90;;;;;;5058565;28;20052;-87
2022/12/23 10:22:09;;;;;;;46.40;14.45;;;8.50;99.90;;;;;;5076092;28;20043;-86
2022/12/23 10:24:39;;;;;;;49.85;14.43;;;9.40;99.90;;;;;;5059459;28;20048;-87
2022/12/23 10:27:14;;;;;;;36.28;13.88;;;8.40;99.90;;;;;;5058354;28;20098;-86
2022/12/23 10:29:41;;;;;;;26.13;13.20;;;8.30;99.90;;;;;;5074635;28;20101;-86
2022/12/23 10:32:44;;;;;;;26.83;13.68;;;8.20;99.90;;;;;;5073735;28;20409;-87
2022/12/23 10:35:45;;;;;;;39.05;14.60;;;8.10;99.90;;;;;;5109539;28;20067;-87
2022/12/23 10:38:32;;;;;;;21.25;12.88;;;8.10;99.90;;;;;;5075696;28;20048;-87
2022/12/23 10:41:10;;;;;;;19.90;11.75;;;8.00;99.90;;;;;;5109181;28;20098;-88
2022/12/23 10:44:00;;;;;;;19.88;11.98;;;8.00;99.90;;;;;;5092773;28;20127;-87
2022/12/23 10:46:38;;;;;;;20.77;12.57;;;8.00;99.90;;;;;;5091901;28;20075;-88
2022/12/23 10:49:30;;;;;;;27.35;14.27;;;8.00;99.90;;;;;;5092668;28;20044;-87
2022/12/23 10:51:59;;;;;;;25.10;13.88;;;7.90;99.90;;;;;;5082720;28;20086;-88
2022/12/23 10:54:36;;;;;;;25.42;14.30;;;8.00;99.90;;;;;;5075961;28;20062;-89
2022/12/23 10:57:04;;;;;;;23.58;12.95;;;8.00;99.90;;;;;;5124340;27;20052;-89
2022/12/23 10:59:35;;;;;;;23.65;13.13;;;8.00;99.90;;;;;;5095362;28;20043;-89
2022/12/23 11:02:13;;;;;;;21.73;12.85;;;8.00;99.90;;;;;;5098117;28;20048;-90
2022/12/23 11:04:44;;;;;;;20.73;12.93;;;8.00;99.90;;;;;;5090116;28;20044;-83
2022/12/23 11:07:21;;;;;;;23.30;12.85;;;8.00;99.90;;;;;;5071640;28;20084;-85
2022/12/23 11:09:56;;;;;;;25.67;13.35;;;8.00;99.90;;;;;;5055838;28;20397;-85
2022/12/23 11:12:24;;;;;;;24.00;13.05;;;8.00;99.90;;;;;;5074827;28;20121;-85
2022/12/23 11:14:56;;;;;;;23.75;13.50;;;8.50;99.90;;;;;;5069169;28;20063;-84
2022/12/23 11:17:23;;;;;;;23.38;13.77;;;8.00;99.90;;;;;;5071098;28;20056;-84
2022/12/23 11:20:08;;;;;;;24.52;13.25;;;7.90;99.90;;;;;;5088146;28;20109;-83
2022/12/23 11:22:35;;;;;;;21.95;12.88;;;7.90;99.90;;;;;;5083341;28;20048;-84
2022/12/23 11:25:24;;;;;;;21.02;12.95;;;8.00;99.90;;;;;;5089556;28;20066;-88
2022/12/23 11:27:56;;;;;;;20.20;12.05;;;8.00;99.90;;;;;;5108890;28;20135;-83
2022/12/23 11:30:21;;;;;;;22.23;12.65;;;7.90;99.90;;;;;;5109578;28;20060;-83
2022/12/23 11:32:48;;;;;;;24.90;12.43;;;7.90;99.90;;;;;;5075252;28;20496;-83
2022/12/23 11:35:29;;;;;;;25.60;13.35;;;7.80;99.90;;;;;;5052396;28;20103;-82
2022/12/23 11:37:57;;;;;;;26.40;14.32;;;8.50;99.90;;;;;;5050687;28;20512;-82
2022/12/23 11:40:33;;;;;;;24.63;13.93;;;8.90;99.90;;;;;;5069137;28;20051;-90
2022/12/23 11:43:00;;;;;;;;;;;7.80;99.90;;;;;;5068757;28;20115;-90
2022/12/23 11:45:29;;;;;;;24.95;13.27;;;7.80;99.90;;;;;;5072812;28;19942;-89
2022/12/23 11:47:55;;;;;;;26.17;13.02;;;8.30;99.90;;;;;;5055404;28;20067;-88
2022/12/23 11:50:28;;;;;;;22.90;13.15;;;7.80;99.90;;;;;;5055203;28;20044;-89
2022/12/23 11:53:13;;;;;;;23.13;12.93;;;7.90;99.90;;;;;;5072094;28;20053;-89
2022/12/23 11:55:57;;;;;;;22.30;11.75;;;7.90;99.90;;;;;;5055723;28;20489;-90
2022/12/23 11:58:23;;;;;;;22.67;13.20;;;7.90;99.90;;;;;;5058810;28;20052;-89
2022/12/23 12:00:56;;;;;;;23.08;13.23;;;7.80;99.90;;;;;;5078745;28;20101;-88
2022/12/23 12:03:46;;;;;;;22.90;13.40;;;7.60;99.90;;;;;;5063901;28;20405;-90
2022/12/23 12:06:15;;;;;;;23.55;12.27;;;8.00;99.90;;;;;;5048764;28;20528;-89
2022/12/23 12:08:41;;;;;;;22.40;11.50;;;7.90;99.90;;;;;;5079051;28;20066;-87
2022/12/23 12:11:13;;;;;;;25.00;13.15;;;8.00;99.90;;;;;;5096030;28;20051;-88
2022/12/23 12:13:43;;;;;;;27.08;12.95;;;8.00;99.90;;;;;;5079859;28;20048;-87
2022/12/23 12:16:37;;;;;;;27.88;14.73;;;7.90;99.90;;;;;;5080168;28;20073;-88
2022/12/23 12:19:18;;;;;;;28.77;13.07;;;7.90;99.90;;;;;;5100805;28;20093;-88
2022/12/23 12:21:46;;;;;;;27.30;14.13;;;8.70;99.90;;;;;;5078737;28;20134;-87
2022/12/23 12:24:34;;;;;;;25.55;13.25;;;7.90;99.90;;;;;;5054765;28;20048;-88
2022/12/23 12:27:03;;;;;;;29.85;15.20;;;7.90;99.90;;;;;;5078345;28;20093;-89
2022/12/23 12:29:40;;;;;;;27.70;14.35;;;7.50;99.90;;;;;;5068724;28;20048;-89
2022/12/23 12:32:15;;;;;;;25.70;13.90;;;7.90;99.90;;;;;;5060441;28;20060;-89
2022/12/23 12:35:08;;;;;;;24.40;12.88;;;7.90;99.90;;;;;;5079037;28;20154;-88
2022/12/23 12:37:37;;;;;;;25.15;13.63;;;7.90;99.90;;;;;;5064920;27;20048;-89
2022/12/23 12:40:20;;;;;;;23.63;12.85;;;7.90;99.90;;;;;;5090516;27;20130;-88
2022/12/23 12:43:03;;;;;;;24.08;12.98;;;7.90;99.90;;;;;;5108807;27;20467;-88
2022/12/23 12:45:40;;;;;;;22.85;12.52;;;7.90;99.90;;;;;;5094067;28;20052;-88
2022/12/23 12:48:24;;;;;;;21.45;12.52;;;8.00;99.90;;;;;;5097063;28;20089;-88
2022/12/23 12:51:02;;;;;;;22.50;12.07;;;8.00;99.90;;;;;;5089843;28;20139;-88
2022/12/23 12:53:30;;;;;;;26.40;13.45;;;8.00;99.90;;;;;;5076849;28;20059;-88
2022/12/23 12:56:05;;;;;;;27.83;13.48;;;7.90;99.90;;;;;;5106264;27;20079;-88
2022/12/23 12:58:31;;;;;;;24.30;13.80;;;8.50;99.90;;;;;;5080231;28;20135;-89
2022/12/23 13:01:12;;;;;;;24.42;13.73;;;7.90;99.90;;;;;;5093446;28;20472;-89
2022/12/23 13:03:51;;;;;;;27.17;14.38;;;7.90;99.90;;;;;;5088902;28;20048;-89
2022/12/23 13:06:43;;;;;;;27.13;14.32;;;8.00;99.90;;;;;;5085451;27;20056;-89
2022/12/23 13:09:47;;;;;;;27.83;14.70;;;8.00;99.90;;;;;;5099540;27;20122;-89
2022/12/23 13:12:44;;;;;;;30.92;15.18;;;8.00;99.90;;;;;;5119590;27;20054;-89
2022/12/23 13:15:51;;;;;;;29.40;15.18;;;7.90;99.90;;;;;;5134714;27;20044;-89
2022/12/23 13:18:37;;;;;;;29.27;15.90;;;7.90;99.90;;;;;;5107026;28;20077;-88
2022/12/23 13:21:12;;;;;;;28.70;16.90;;;7.90;99.90;;;;;;5064213;28;20048;-89
2022/12/23 13:23:49;;;;;;;29.70;16.03;;;7.90;99.90;;;;;;5107845;27;20092;-90
2022/12/23 13:26:53;;;;;;;27.70;16.52;;;8.00;99.90;;;;;;5100553;28;20059;-89